Blenker, Wisconsin
Current Conditions -  °F | °C
As of 1:29 PM on Monday 22 Dec 2014 (Local Time) from KMFI Reporting Station
Haze Haze  
Wind Chill: 28°   Ceiling: 3000
Heat Index: 37°   Visibility: 5mi
Dew Point: 32°   Wind: 14mph
Humidity: 82%   Direction: 120°ESE
Pressure: 29.71"   Gusts: 21mph
Location:  44.61°N, 89.92°W
Report Text: KMFI 221929Z AUTO 12012G18KT 5SM HZ FEW013 BKN030 OVC034 03/00 A2971 RMK AO2 T00280000
Loading
Personal Weather Stations






























Interactive Weather Map New forecast layout! Learn more

10-Day Weather Forecast

Advertisements
Track Severe Weather on mobile